Edgewood, Kentucky
Current Conditions -  °F | °C
As of 4:52 PM on Friday 19 Dec 2014 (Local Time) from KCVG Reporting Station
Overcast Overcast  
Wind Chill: 30°   Ceiling: 2300
Heat Index: 30°   Visibility: 8mi
Dew Point: 18°   Wind: 0mph
Humidity: 61%   Direction: NA
Pressure: 30.29"   Gusts: NA
Location:  39.017°N, 84.607°W
Report Text: KCVG 192152Z 00000KT 8SM OVC023 M01/M08 A3029 RMK AO2 SLP265 T10111078
Loading
Personal Weather Stations






























Interactive Weather Map New forecast layout! Learn more

10-Day Weather Forecast

Advertisements
Track Severe Weather on mobile